Private Wetterstation Wechselburg
Wetterdaten: Woche 26.06.23 - 02.07.23 (KW26)
Datum Zeit Temp. +2m Bodentemp. Temp.+5cm Temp. Wind Windchill X Diff Temp. Feuchte +2m Feuchte +5cm Luftdruck Regen Wind Richtung Sonnenschein Taupunkt Windchill Windben
26.06.2023 00:00 17,6 C 21,7 C 16,5 C 11,7 C 0,0 C 0,0 C 82 % 89 % 1017,2 hPa 0,0 l/m 0,0 km/h (0 Bft) N 0,00 h 14,5 C 0,0 C 0,0 km/h (0 Bft)
26.06.2023 01:00 16,7 C 21,6 C 15,9 C 11,1 C 0,0 C 0,0 C 85 % 90 % 1016,8 hPa 0,0 l/m 0,0 km/h (0 Bft) N 0,00 h 14,0 C 0,0 C 0,0 km/h (0 Bft)
26.06.2023 02:00 16,1 C 21,6 C 15,4 C 10,7 C 0,0 C 0,0 C 86 % 90 % 1016,4 hPa 0,0 l/m 0,0 km/h (0 Bft) N 0,00 h 13,7 C 0,0 C 0,0 km/h (0 Bft)
26.06.2023 03:00 15,6 C 21,5 C 15,1 C 10,4 C 0,0 C 0,0 C 87 % 90 % 1016,0 hPa 0,0 l/m 0,0 km/h (0 Bft) N 0,00 h 13,4 C 0,0 C 0,0 km/h (0 Bft)
26.06.2023 04:00 15,0 C 21,3 C 14,5 C 10,0 C 0,0 C 0,0 C 87 % 90 % 1015,7 hPa 0,0 l/m 0,0 km/h (0 Bft) N 0,00 h 12,9 C 0,0 C 0,0 km/h (0 Bft)
26.06.2023 05:00 14,5 C 21,1 C 14,1 C 9,7 C 0,0 C 0,0 C 87 % 90 % 1015,5 hPa 0,0 l/m 0,0 km/h (0 Bft) N 0,00 h 12,4 C 0,0 C 0,0 km/h (0 Bft)
26.06.2023 06:00 14,5 C 21,0 C 14,6 C 9,7 C 0,0 C 0,0 C 88 % 90 % 1015,3 hPa 0,0 l/m 0,0 km/h (0 Bft) N 0,00 h 12,5 C 0,0 C 0,0 km/h (0 Bft)
26.06.2023 07:00 15,8 C 20,7 C 17,1 C 10,5 C 0,0 C 0,0 C 88 % 88 % 1015,1 hPa 0,0 l/m 0,0 km/h (0 Bft) N 0,00 h 13,7 C 0,0 C 0,0 km/h (0 Bft)
26.06.2023 08:00 21,6 C 20,5 C 18,9 C 14,4 C 0,0 C 0,0 C 82 % 85 % 1014,8 hPa 0,0 l/m 0,0 km/h (0 Bft) N 0,00 h 18,3 C 0,0 C 0,0 km/h (0 Bft)
26.06.2023 09:00 25,5 C 20,5 C 21,4 C 17,0 C 0,0 C 0,0 C 63 % 75 % 1014,5 hPa 0,0 l/m 0,0 km/h (0 Bft) N 0,00 h 18,0 C 0,0 C 0,0 km/h (0 Bft)
26.06.2023 10:00 26,3 C 20,7 C 22,9 C 34,0 C 34,0 C 7,7 C 60 % 70 % 1014,4 hPa 0,0 l/m 0,0 km/h (0 Bft) N 1,00 h 17,8 C 34,0 C 0,0 km/h (0 Bft)
26.06.2023 11:00 27,9 C 20,8 C 24,4 C 37,1 C 37,1 C 9,2 C 54 % 66 % 1014,2 hPa 0,0 l/m 0,1 km/h (0 Bft) N 1,00 h 17,7 C 37,1 C 0,4 km/h (0 Bft)
26.06.2023 12:00 29,4 C 20,9 C 25,6 C 37,0 C 37,0 C 7,6 C 50 % 61 % 1013,9 hPa 0,0 l/m 0,2 km/h (0 Bft) N 1,00 h 17,8 C 37,0 C 0,0 km/h (0 Bft)
26.06.2023 13:00 32,0 C 21,2 C 27,4 C 37,1 C 37,1 C 5,1 C 42 % 55 % 1013,5 hPa 0,0 l/m 0,2 km/h (0 Bft) N 1,00 h 17,5 C 37,1 C 0,9 km/h (0 Bft)
26.06.2023 14:00 33,0 C 21,4 C 30,3 C 37,9 C 37,9 C 5,0 C 39 % 51 % 1013,2 hPa 0,0 l/m 0,1 km/h (0 Bft) N 1,00 h 17,0 C 37,9 C 0,0 km/h (0 Bft)
26.06.2023 15:00 31,9 C 21,6 C 30,4 C 38,6 C 38,6 C 6,7 C 39 % 50 % 1012,8 hPa 0,0 l/m 0,0 km/h (0 Bft) N 1,00 h 16,4 C 38,6 C 0,0 km/h (0 Bft)
26.06.2023 16:00 31,6 C 21,8 C 30,1 C 38,2 C 38,2 C 6,6 C 41 % 50 % 1012,2 hPa 0,0 l/m 0,0 km/h (0 Bft) N 1,00 h 16,5 C 38,2 C 0,0 km/h (0 Bft)
26.06.2023 17:00 26,5 C 22,2 C 23,9 C 27,0 C 26,2 C 1,0 C 60 % 72 % 1012,5 hPa 2,7 l/m 0,7 km/h (0 Bft) O 0,08 h 17,6 C 26,2 C 3,0 km/h (1 Bft)
26.06.2023 18:00 22,4 C 22,6 C 21,5 C 23,1 C 23,0 C 0,7 C 83 % 90 % 1011,9 hPa 0,0 l/m 0,5 km/h (0 Bft) N 0,00 h 19,3 C 23,0 C 1,0 km/h (0 Bft)
26.06.2023 19:00 20,7 C 22,6 C 19,3 C 20,5 C 19,9 C 0,1 C 82 % 90 % 1012,4 hPa 6,2 l/m 0,5 km/h (0 Bft) SW 0,00 h 17,6 C 19,9 C 1,2 km/h (1 Bft)
26.06.2023 20:00 19,5 C 22,8 C 18,8 C 19,3 C 18,8 C 0,0 C 86 % 90 % 1013,0 hPa 0,0 l/m 0,0 km/h (0 Bft) N 0,00 h 17,1 C 18,8 C 0,0 km/h (0 Bft)
26.06.2023 21:00 19,1 C 22,7 C 18,8 C 18,9 C 18,7 C 0,0 C 87 % 90 % 1013,6 hPa 0,0 l/m 0,0 km/h (0 Bft) N 0,00 h 16,8 C 18,7 C 0,0 km/h (0 Bft)
26.06.2023 22:00 18,7 C 22,7 C 18,7 C 18,7 C 18,6 C 0,0 C 88 % 90 % 1013,9 hPa 0,0 l/m 0,0 km/h (0 Bft) N 0,00 h 16,6 C 18,6 C 0,0 km/h (0 Bft)
26.06.2023 23:00 17,9 C 22,5 C 17,7 C 18,1 C 18,0 C 0,2 C 87 % 90 % 1014,3 hPa 0,0 l/m 0,0 km/h (0 Bft) N 0,00 h 15,7 C 18,0 C 0,0 km/h (0 Bft)
27.06.2023 00:00 16,7 C 22,0 C 16,3 C 17,5 C 17,5 C 0,8 C 87 % 90 % 1014,5 hPa 0,0 l/m 0,1 km/h (0 Bft) N 0,00 h 14,6 C 17,5 C 0,0 km/h (0 Bft)
27.06.2023 01:00 16,5 C 21,9 C 16,0 C 17,1 C 17,1 C 0,6 C 87 % 90 % 1014,9 hPa 0,0 l/m 0,0 km/h (0 Bft) N 0,00 h 14,4 C 17,1 C 0,0 km/h (0 Bft)
27.06.2023 02:00 16,1 C 21,9 C 15,7 C 16,3 C 16,1 C 0,2 C 87 % 90 % 1015,7 hPa 0,0 l/m 0,0 km/h (0 Bft) N 0,00 h 14,0 C 16,1 C 0,0 km/h (0 Bft)
27.06.2023 03:00 15,8 C 21,6 C 15,4 C 16,0 C 15,9 C 0,2 C 87 % 90 % 1016,0 hPa 0,0 l/m 0,0 km/h (0 Bft) N 0,00 h 13,6 C 15,9 C 0,0 km/h (0 Bft)
27.06.2023 04:00 15,1 C 21,3 C 15,1 C 15,6 C 15,6 C 0,5 C 86 % 90 % 1016,6 hPa 0,0 l/m 0,0 km/h (0 Bft) N 0,00 h 12,8 C 15,6 C 0,0 km/h (0 Bft)
27.06.2023 05:00 14,4 C 21,1 C 14,5 C 14,5 C 14,4 C 0,1 C 85 % 90 % 1017,2 hPa 0,0 l/m 0,0 km/h (0 Bft) N 0,00 h 11,9 C 14,4 C 0,0 km/h (0 Bft)
27.06.2023 06:00 14,0 C 20,9 C 14,5 C 15,0 C 15,0 C 1,1 C 86 % 83 % 1017,8 hPa 0,0 l/m 0,0 km/h (0 Bft) N 0,00 h 11,6 C 15,0 C 0,0 km/h (0 Bft)
27.06.2023 07:00 14,8 C 20,7 C 15,2 C 18,8 C 18,8 C 4,0 C 84 % 79 % 1018,4 hPa 0,0 l/m 0,0 km/h (0 Bft) N 0,42 h 12,0 C 18,8 C 0,0 km/h (0 Bft)
27.06.2023 08:00 16,2 C 20,5 C 15,7 C 23,9 C 23,9 C 7,7 C 76 % 68 % 1018,9 hPa 0,0 l/m 0,2 km/h (0 Bft) N 1,00 h 12,0 C 23,9 C 1,5 km/h (1 Bft)
27.06.2023 09:00 17,2 C 20,3 C 16,4 C 23,7 C 23,7 C 6,5 C 70 % 63 % 1018,9 hPa 0,0 l/m 0,1 km/h (0 Bft) N 1,00 h 11,7 C 23,7 C 1,2 km/h (1 Bft)
27.06.2023 10:00 17,7 C 20,1 C 17,2 C 22,4 C 22,4 C 4,7 C 64 % 57 % 1018,7 hPa 0,0 l/m 0,1 km/h (0 Bft) N 1,00 h 10,9 C 22,4 C 2,3 km/h (1 Bft)
27.06.2023 11:00 18,1 C 20,0 C 17,7 C 22,6 C 22,6 C 4,5 C 63 % 56 % 1018,5 hPa 0,0 l/m 0,1 km/h (0 Bft) N 0,75 h 10,9 C 22,6 C 0,0 km/h (0 Bft)
27.06.2023 12:00 18,9 C 19,8 C 18,2 C 22,0 C 22,0 C 3,1 C 60 % 53 % 1018,4 hPa 0,0 l/m 0,2 km/h (0 Bft) N 0,27 h 10,9 C 22,0 C 0,6 km/h (0 Bft)
27.06.2023 13:00 19,1 C 19,8 C 18,7 C 23,5 C 23,5 C 4,4 C 62 % 57 % 1018,4 hPa 0,0 l/m 0,2 km/h (0 Bft) W-SW 0,40 h 11,7 C 23,5 C 0,9 km/h (0 Bft)
27.06.2023 14:00 21,2 C 19,8 C 20,0 C 26,1 C 26,1 C 5,0 C 58 % 58 % 1018,0 hPa 0,0 l/m 0,1 km/h (0 Bft) N 0,52 h 12,4 C 26,1 C 0,8 km/h (0 Bft)
27.06.2023 15:00 19,8 C 19,8 C 19,9 C 25,8 C 25,8 C 6,0 C 65 % 70 % 1017,5 hPa 0,0 l/m 0,1 km/h (0 Bft) N 1,00 h 13,0 C 25,8 C 0,3 km/h (0 Bft)
27.06.2023 16:00 19,6 C 19,9 C 18,4 C 22,2 C 21,9 C 2,8 C 64 % 72 % 1017,0 hPa 0,7 l/m 0,1 km/h (0 Bft) N 0,42 h 12,7 C 21,9 C 0,5 km/h (0 Bft)
27.06.2023 17:00 18,8 C 19,9 C 17,0 C 19,4 C 18,8 C 1,0 C 66 % 72 % 1017,1 hPa 0,0 l/m 0,1 km/h (0 Bft) N 0,00 h 12,3 C 18,8 C 0,2 km/h (0 Bft)
27.06.2023 18:00 18,7 C 19,9 C 17,6 C 19,6 C 19,6 C 0,8 C 67 % 69 % 1017,1 hPa 0,0 l/m 0,2 km/h (0 Bft) N 0,00 h 12,5 C 19,6 C 0,8 km/h (0 Bft)
27.06.2023 19:00 18,7 C 20,0 C 17,1 C 19,5 C 19,5 C 0,8 C 68 % 74 % 1017,6 hPa 0,0 l/m 0,0 km/h (0 Bft) N 0,00 h 12,6 C 19,5 C 0,0 km/h (0 Bft)
27.06.2023 20:00 17,5 C 20,0 C 16,2 C 17,3 C 17,1 C 0,0 C 71 % 70 % 1017,8 hPa 0,0 l/m 0,1 km/h (0 Bft) N 0,00 h 12,1 C 17,1 C 0,4 km/h (0 Bft)
27.06.2023 21:00 15,2 C 20,0 C 13,8 C 14,6 C 13,4 C 0,0 C 74 % 74 % 1017,9 hPa 0,0 l/m 0,0 km/h (0 Bft) N 0,00 h 10,7 C 13,4 C 0,0 km/h (0 Bft)
27.06.2023 22:00 13,5 C 20,0 C 12,5 C 12,9 C 11,7 C 0,0 C 79 % 78 % 1018,1 hPa 0,0 l/m 0,0 km/h (0 Bft) N 0,00 h 10,0 C 11,7 C 0,0 km/h (0 Bft)
27.06.2023 23:00 13,2 C 20,0 C 13,1 C 13,0 C 12,5 C 0,0 C 83 % 81 % 1018,2 hPa 0,0 l/m 0,0 km/h (0 Bft) N 0,00 h 10,4 C 12,5 C 0,0 km/h (0 Bft)
28.06.2023 00:00 13,2 C 20,0 C 12,7 C 12,8 C 12,0 C 0,0 C 85 % 82 % 1018,0 hPa 0,0 l/m 0,0 km/h (0 Bft) N 0,00 h 10,6 C 12,0 C 0,0 km/h (0 Bft)
28.06.2023 01:00 12,7 C 19,8 C 12,4 C 12,4 C 11,6 C 0,0 C 85 % 82 % 1018,0 hPa 0,0 l/m 0,0 km/h (0 Bft) N 0,00 h 10,3 C 11,6 C 0,0 km/h (0 Bft)
28.06.2023 02:00 12,4 C 19,6 C 11,9 C 12,0 C 11,0 C 0,0 C 85 % 80 % 1017,9 hPa 0,0 l/m 0,0 km/h (0 Bft) N 0,00 h 9,9 C 11,0 C 0,0 km/h (0 Bft)
28.06.2023 03:00 11,8 C 19,7 C 11,1 C 11,3 C 10,3 C 0,0 C 85 % 82 % 1018,2 hPa 0,0 l/m 0,0 km/h (0 Bft) N 0,00 h 9,3 C 10,3 C 0,0 km/h (0 Bft)
28.06.2023 04:00 11,4 C 19,6 C 10,6 C 10,9 C 9,9 C 0,0 C 86 % 89 % 1018,4 hPa 0,0 l/m 0,0 km/h (0 Bft) N 0,00 h 9,2 C 9,9 C 0,0 km/h (0 Bft)
28.06.2023 05:00 10,9 C 19,5 C 10,4 C 10,6 C 9,9 C 0,0 C 87 % 90 % 1018,6 hPa 0,0 l/m 0,0 km/h (0 Bft) N 0,00 h 8,8 C 9,9 C 0,0 km/h (0 Bft)
28.06.2023 06:00 11,2 C 19,4 C 11,1 C 11,1 C 10,7 C 0,0 C 88 % 90 % 1018,9 hPa 0,0 l/m 0,0 km/h (0 Bft) N 0,00 h 9,2 C 10,7 C 0,0 km/h (0 Bft)
28.06.2023 07:00 12,5 C 19,1 C 13,0 C 19,2 C 19,2 C 6,6 C 88 % 87 % 1019,3 hPa 0,0 l/m 0,0 km/h (0 Bft) N 0,83 h 10,6 C 19,2 C 0,0 km/h (0 Bft)
28.06.2023 08:00 15,8 C 18,9 C 14,5 C 27,1 C 27,1 C 11,3 C 81 % 76 % 1019,0 hPa 0,0 l/m 0,0 km/h (0 Bft) N 1,00 h 12,6 C 27,1 C 0,0 km/h (0 Bft)
28.06.2023 09:00 17,0 C 18,9 C 16,0 C 25,3 C 25,3 C 8,3 C 74 % 70 % 1018,9 hPa 0,0 l/m 0,0 km/h (0 Bft) N 1,00 h 12,4 C 25,3 C 0,7 km/h (0 Bft)
28.06.2023 10:00 17,6 C 18,8 C 17,0 C 24,1 C 24,1 C 6,5 C 69 % 63 % 1019,0 hPa 0,0 l/m 0,1 km/h (0 Bft) N 1,00 h 11,8 C 24,1 C 0,0 km/h (0 Bft)
28.06.2023 11:00 18,6 C 18,8 C 17,9 C 25,8 C 25,8 C 7,2 C 64 % 58 % 1018,7 hPa 0,0 l/m 0,1 km/h (0 Bft) N 1,00 h 11,6 C 25,8 C 1,4 km/h (1 Bft)
28.06.2023 12:00 20,1 C 18,8 C 19,0 C 27,0 C 27,0 C 6,8 C 58 % 55 % 1018,4 hPa 0,0 l/m 0,1 km/h (0 Bft) N 1,00 h 11,7 C 27,0 C 0,0 km/h (0 Bft)
28.06.2023 13:00 21,6 C 18,9 C 19,9 C 26,4 C 26,4 C 4,8 C 53 % 50 % 1018,4 hPa 0,0 l/m 0,3 km/h (0 Bft) N 1,00 h 11,6 C 26,4 C 1,3 km/h (1 Bft)
28.06.2023 14:00 21,9 C 19,0 C 21,2 C 26,3 C 26,3 C 4,4 C 51 % 46 % 1018,6 hPa 0,0 l/m 0,3 km/h (0 Bft) N 0,97 h 11,2 C 26,3 C 1,2 km/h (1 Bft)
28.06.2023 15:00 22,4 C 19,2 C 22,8 C 29,2 C 29,2 C 6,8 C 49 % 44 % 1018,6 hPa 0,0 l/m 0,3 km/h (0 Bft) N 1,00 h 11,1 C 29,2 C 0,8 km/h (0 Bft)
28.06.2023 16:00 23,1 C 19,3 C 23,4 C 30,0 C 30,0 C 7,0 C 47 % 43 % 1018,4 hPa 0,0 l/m 0,2 km/h (0 Bft) N 1,00 h 11,1 C 30,0 C 0,0 km/h (0 Bft)
28.06.2023 17:00 23,2 C 19,3 C 23,5 C 27,1 C 27,1 C 3,9 C 46 % 41 % 1018,1 hPa 0,0 l/m 0,2 km/h (0 Bft) N 0,67 h 11,0 C 27,1 C 0,5 km/h (0 Bft)
28.06.2023 18:00 23,1 C 19,5 C 22,4 C 25,3 C 25,3 C 2,1 C 47 % 42 % 1018,0 hPa 0,0 l/m 0,1 km/h (0 Bft) N 0,17 h 11,0 C 25,3 C 0,0 km/h (0 Bft)
28.06.2023 19:00 23,0 C 19,6 C 21,8 C 26,0 C 26,0 C 3,1 C 47 % 43 % 1018,1 hPa 0,0 l/m 0,1 km/h (0 Bft) N 0,58 h 11,1 C 26,0 C 0,4 km/h (0 Bft)
28.06.2023 20:00 21,7 C 19,7 C 19,8 C 23,7 C 23,7 C 2,1 C 52 % 49 % 1018,2 hPa 0,0 l/m 0,0 km/h (0 Bft) N 0,83 h 11,3 C 23,7 C 0,0 km/h (0 Bft)
28.06.2023 21:00 18,7 C 19,9 C 16,7 C 18,2 C 17,2 C 0,0 C 62 % 61 % 1018,4 hPa 0,0 l/m 0,0 km/h (0 Bft) N 0,00 h 11,2 C 17,2 C 0,0 km/h (0 Bft)
28.06.2023 22:00 16,1 C 20,0 C 14,6 C 15,4 C 14,0 C 0,0 C 71 % 69 % 1018,7 hPa 0,0 l/m 0,0 km/h (0 Bft) N 0,00 h 10,7 C 14,0 C 0,0 km/h (0 Bft)
28.06.2023 23:00 14,5 C 20,1 C 13,3 C 13,8 C 12,4 C 0,0 C 77 % 74 % 1018,8 hPa 0,0 l/m 0,0 km/h (0 Bft) N 0,00 h 10,4 C 12,4 C 0,0 km/h (0 Bft)
29.06.2023 00:00 13,1 C 20,1 C 12,1 C 12,5 C 11,3 C 0,0 C 80 % 78 % 1018,9 hPa 0,0 l/m 0,0 km/h (0 Bft) N 0,00 h 9,7 C 11,3 C 0,0 km/h (0 Bft)
29.06.2023 01:00 12,1 C 20,0 C 11,4 C 11,6 C 10,5 C 0,0 C 82 % 79 % 1018,8 hPa 0,0 l/m 0,0 km/h (0 Bft) N 0,00 h 9,2 C 10,5 C 0,0 km/h (0 Bft)
29.06.2023 02:00 11,5 C 19,9 C 10,7 C 10,9 C 9,8 C 0,0 C 84 % 81 % 1018,8 hPa 0,0 l/m 0,0 km/h (0 Bft) N 0,00 h 8,9 C 9,8 C 0,0 km/h (0 Bft)
29.06.2023 03:00 10,7 C 19,8 C 10,1 C 10,2 C 9,2 C 0,0 C 85 % 81 % 1018,7 hPa 0,0 l/m 0,0 km/h (0 Bft) N 0,00 h 8,3 C 9,2 C 0,0 km/h (0 Bft)
29.06.2023 04:00 10,3 C 19,6 C 9,7 C 9,7 C 8,7 C 0,0 C 86 % 81 % 1018,6 hPa 0,0 l/m 0,0 km/h (0 Bft) N 0,00 h 8,0 C 8,7 C 0,0 km/h (0 Bft)
29.06.2023 05:00 9,9 C 19,5 C 9,4 C 9,5 C 8,8 C 0,0 C 87 % 83 % 1018,7 hPa 0,0 l/m 0,0 km/h (0 Bft) N 0,00 h 7,7 C 8,8 C 0,0 km/h (0 Bft)
29.06.2023 06:00 10,1 C 19,4 C 10,0 C 10,1 C 9,9 C 0,0 C 88 % 90 % 1018,7 hPa 0,0 l/m 0,0 km/h (0 Bft) N 0,00 h 8,2 C 9,9 C 0,0 km/h (0 Bft)
29.06.2023 07:00 11,8 C 19,0 C 12,7 C 21,4 C 21,4 C 9,6 C 88 % 84 % 1018,5 hPa 0,0 l/m 0,0 km/h (0 Bft) N 0,75 h 9,8 C 21,4 C 0,0 km/h (0 Bft)
29.06.2023 08:00 17,3 C 18,9 C 14,9 C 31,7 C 31,7 C 14,4 C 82 % 80 % 1018,3 hPa 0,0 l/m 0,0 km/h (0 Bft) N 1,00 h 14,2 C 31,7 C 0,0 km/h (0 Bft)
29.06.2023 09:00 20,8 C 18,9 C 16,7 C 32,2 C 32,2 C 11,4 C 68 % 78 % 1018,2 hPa 0,0 l/m 0,0 km/h (0 Bft) N 1,00 h 14,7 C 32,2 C 0,0 km/h (0 Bft)
29.06.2023 10:00 22,5 C 19,0 C 18,9 C 32,3 C 32,3 C 9,8 C 58 % 65 % 1017,7 hPa 0,0 l/m 0,0 km/h (0 Bft) N 1,00 h 13,7 C 32,3 C 0,0 km/h (0 Bft)
29.06.2023 11:00 23,7 C 19,1 C 20,3 C 33,7 C 33,7 C 10,0 C 51 % 58 % 1017,3 hPa 0,0 l/m 0,0 km/h (0 Bft) N 1,00 h 12,9 C 33,7 C 0,2 km/h (0 Bft)
29.06.2023 12:00 25,1 C 19,3 C 21,8 C 33,0 C 33,0 C 7,9 C 48 % 54 % 1016,8 hPa 0,0 l/m 0,1 km/h (0 Bft) N 1,00 h 13,4 C 33,0 C 1,1 km/h (0 Bft)
29.06.2023 13:00 27,5 C 19,5 C 23,5 C 33,1 C 33,1 C 5,6 C 43 % 48 % 1016,3 hPa 0,0 l/m 0,1 km/h (0 Bft) N 1,00 h 13,7 C 33,1 C 0,3 km/h (0 Bft)
29.06.2023 14:00 27,8 C 19,7 C 25,0 C 33,0 C 33,0 C 5,2 C 41 % 46 % 1015,8 hPa 0,0 l/m 0,1 km/h (0 Bft) N 1,00 h 13,1 C 33,0 C 0,0 km/h (0 Bft)
29.06.2023 15:00 27,0 C 20,0 C 25,3 C 33,2 C 33,2 C 6,2 C 42 % 45 % 1015,5 hPa 0,0 l/m 0,1 km/h (0 Bft) N 1,00 h 13,0 C 33,2 C 0,5 km/h (0 Bft)
29.06.2023 16:00 27,1 C 20,2 C 26,0 C 34,1 C 34,1 C 7,0 C 41 % 44 % 1015,3 hPa 0,0 l/m 0,0 km/h (0 Bft) N 1,00 h 12,7 C 34,1 C 0,0 km/h (0 Bft)
29.06.2023 17:00 27,4 C 20,4 C 26,8 C 31,4 C 31,4 C 4,0 C 41 % 44 % 1014,7 hPa 0,0 l/m 0,1 km/h (0 Bft) N 0,67 h 12,9 C 31,4 C 0,0 km/h (0 Bft)
29.06.2023 18:00 27,6 C 20,5 C 25,6 C 29,8 C 29,8 C 2,2 C 41 % 44 % 1014,4 hPa 0,0 l/m 0,0 km/h (0 Bft) N 0,00 h 13,0 C 29,8 C 0,0 km/h (0 Bft)
29.06.2023 19:00 26,6 C 20,7 C 24,7 C 29,8 C 29,8 C 3,2 C 44 % 46 % 1014,0 hPa 0,0 l/m 0,0 km/h (0 Bft) N 0,75 h 13,4 C 29,8 C 0,0 km/h (0 Bft)
29.06.2023 20:00 24,5 C 20,8 C 22,1 C 29,8 C 29,8 C 5,3 C 54 % 58 % 1013,7 hPa 0,0 l/m 0,0 km/h (0 Bft) N 1,00 h 14,4 C 29,8 C 0,0 km/h (0 Bft)
29.06.2023 21:00 22,1 C 20,9 C 20,0 C 29,8 C 29,8 C 7,7 C 64 % 67 % 1013,3 hPa 0,0 l/m 0,0 km/h (0 Bft) N 0,25 h 14,8 C 29,8 C 0,0 km/h (0 Bft)
29.06.2023 22:00 19,9 C 21,1 C 18,5 C 29,8 C 29,8 C 9,9 C 72 % 73 % 1013,5 hPa 0,0 l/m 0,0 km/h (0 Bft) N 0,00 h 14,6 C 29,8 C 0,0 km/h (0 Bft)
29.06.2023 23:00 18,8 C 21,1 C 18,0 C 29,8 C 29,8 C 11,0 C 77 % 76 % 1013,3 hPa 0,0 l/m 0,0 km/h (0 Bft) N 0,00 h 14,7 C 29,8 C 0,0 km/h (0 Bft)
30.06.2023 00:00 18,4 C 21,1 C 18,1 C 29,8 C 29,8 C 11,4 C 80 % 77 % 1013,0 hPa 0,0 l/m 0,0 km/h (0 Bft) N 0,00 h 14,9 C 29,8 C 0,0 km/h (0 Bft)
30.06.2023 01:00 18,2 C 21,1 C 17,8 C 29,8 C 29,8 C 11,6 C 81 % 78 % 1012,5 hPa 0,0 l/m 0,0 km/h (0 Bft) N 0,00 h 14,9 C 29,8 C 0,0 km/h (0 Bft)
30.06.2023 02:00 18,0 C 21,1 C 17,5 C 26,8 C 26,7 C 8,8 C 82 % 79 % 1012,5 hPa 0,0 l/m 0,0 km/h (0 Bft) N 0,00 h 14,9 C 26,7 C 0,0 km/h (0 Bft)
30.06.2023 03:00 17,7 C 21,2 C 17,4 C 17,6 C 17,3 C 0,0 C 84 % 81 % 1012,0 hPa 0,0 l/m 0,0 km/h (0 Bft) N 0,00 h 14,9 C 17,3 C 0,0 km/h (0 Bft)
30.06.2023 04:00 17,5 C 21,1 C 17,3 C 17,4 C 17,2 C 0,0 C 85 % 81 % 1011,5 hPa 0,0 l/m 0,0 km/h (0 Bft) N 0,00 h 14,9 C 17,2 C 0,0 km/h (0 Bft)
30.06.2023 05:00 17,5 C 21,1 C 17,3 C 17,4 C 17,3 C 0,0 C 85 % 81 % 1011,6 hPa 0,0 l/m 0,0 km/h (0 Bft) N 0,00 h 15,0 C 17,3 C 0,0 km/h (0 Bft)
30.06.2023 06:00 17,8 C 21,1 C 17,7 C 17,9 C 17,9 C 0,2 C 86 % 82 % 1011,4 hPa 0,0 l/m 0,0 km/h (0 Bft) N 0,00 h 15,4 C 17,9 C 0,0 km/h (0 Bft)
30.06.2023 07:00 18,6 C 21,1 C 18,5 C 19,7 C 19,7 C 1,1 C 86 % 82 % 1011,0 hPa 0,0 l/m 0,0 km/h (0 Bft) N 0,00 h 16,2 C 19,7 C 0,0 km/h (0 Bft)
30.06.2023 08:00 20,0 C 20,9 C 19,8 C 23,3 C 23,3 C 3,3 C 84 % 81 % 1010,8 hPa 0,0 l/m 0,0 km/h (0 Bft) N 0,47 h 17,2 C 23,3 C 0,0 km/h (0 Bft)
30.06.2023 09:00 22,1 C 20,7 C 21,2 C 26,8 C 26,8 C 4,8 C 76 % 77 % 1010,8 hPa 0,0 l/m 0,0 km/h (0 Bft) N 1,00 h 17,7 C 26,8 C 0,0 km/h (0 Bft)
30.06.2023 10:00 23,5 C 20,8 C 22,3 C 27,9 C 27,9 C 4,4 C 71 % 73 % 1010,7 hPa 0,0 l/m 0,0 km/h (0 Bft) N 1,00 h 17,9 C 27,9 C 0,0 km/h (0 Bft)
30.06.2023 11:00 23,9 C 20,8 C 22,8 C 29,2 C 29,2 C 5,3 C 69 % 70 % 1010,5 hPa 0,0 l/m 0,1 km/h (0 Bft) N 1,00 h 17,9 C 29,2 C 0,0 km/h (0 Bft)
30.06.2023 12:00 24,7 C 20,9 C 23,6 C 29,6 C 29,6 C 4,9 C 67 % 68 % 1010,2 hPa 0,0 l/m 0,1 km/h (0 Bft) N 1,00 h 18,1 C 29,6 C 0,5 km/h (0 Bft)
30.06.2023 13:00 23,4 C 21,1 C 22,0 C 25,5 C 25,5 C 2,1 C 65 % 65 % 1009,9 hPa 0,0 l/m 0,8 km/h (0 Bft) N-NW 0,42 h 16,4 C 25,5 C 7,2 km/h (2 Bft)
30.06.2023 14:00 18,5 C 21,5 C 17,2 C 18,1 C 17,3 C 0,0 C 78 % 84 % 1010,4 hPa 4,1 l/m 0,0 km/h (0 Bft) N 0,00 h 14,5 C 17,3 C 0,0 km/h (0 Bft)
30.06.2023 15:00 17,8 C 21,6 C 17,7 C 18,0 C 17,8 C 0,4 C 86 % 90 % 1010,5 hPa 2,7 l/m 0,0 km/h (0 Bft) N 0,00 h 15,4 C 17,8 C 0,0 km/h (0 Bft)
30.06.2023 16:00 18,1 C 21,5 C 18,0 C 18,9 C 18,9 C 0,8 C 87 % 90 % 1010,1 hPa 0,0 l/m 0,3 km/h (0 Bft) N 0,00 h 15,9 C 18,9 C 0,9 km/h (0 Bft)
30.06.2023 17:00 17,3 C 21,6 C 17,3 C 18,2 C 18,2 C 0,9 C 88 % 90 % 1010,5 hPa 0,0 l/m 0,3 km/h (0 Bft) N 0,00 h 15,2 C 18,2 C 0,2 km/h (0 Bft)
30.06.2023 18:00 17,2 C 21,6 C 17,5 C 19,4 C 19,4 C 2,3 C 88 % 90 % 1010,2 hPa 0,0 l/m 0,0 km/h (0 Bft) N 0,00 h 15,2 C 19,4 C 0,0 km/h (0 Bft)
30.06.2023 19:00 16,8 C 21,5 C 17,1 C 17,7 C 17,7 C 0,9 C 88 % 90 % 1010,3 hPa 0,0 l/m 0,1 km/h (0 Bft) N 0,00 h 14,8 C 17,7 C 0,0 km/h (0 Bft)
30.06.2023 20:00 16,7 C 21,4 C 17,2 C 17,4 C 17,4 C 0,7 C 88 % 90 % 1010,4 hPa 0,0 l/m 0,0 km/h (0 Bft) N 0,48 h 14,7 C 17,4 C 0,0 km/h (0 Bft)
30.06.2023 21:00 16,5 C 21,3 C 17,1 C 17,2 C 17,2 C 0,6 C 88 % 90 % 1010,5 hPa 0,0 l/m 0,0 km/h (0 Bft) N 0,25 h 14,5 C 17,2 C 0,0 km/h (0 Bft)
30.06.2023 22:00 16,3 C 21,3 C 16,9 C 16,8 C 16,8 C 0,5 C 88 % 90 % 1010,7 hPa 0,0 l/m 0,0 km/h (0 Bft) N 0,00 h 14,3 C 16,8 C 0,0 km/h (0 Bft)
30.06.2023 23:00 16,1 C 21,2 C 16,7 C 16,5 C 16,5 C 0,4 C 88 % 90 % 1010,3 hPa 0,0 l/m 0,0 km/h (0 Bft) N 0,00 h 14,1 C 16,5 C 0,0 km/h (0 Bft)
01.07.2023 00:00 15,8 C 21,2 C 16,4 C 16,3 C 16,3 C 0,5 C 88 % 90 % 1010,1 hPa 0,0 l/m 0,0 km/h (0 Bft) N 0,00 h 13,8 C 16,3 C 0,0 km/h (0 Bft)
01.07.2023 01:00 15,3 C 21,1 C 16,1 C 16,2 C 16,2 C 0,9 C 88 % 90 % 1010,1 hPa 0,0 l/m 0,0 km/h (0 Bft) N 0,00 h 13,3 C 16,2 C 0,0 km/h (0 Bft)
01.07.2023 02:00 14,9 C 21,0 C 15,9 C 15,9 C 15,9 C 0,9 C 88 % 90 % 1009,8 hPa 0,0 l/m 0,0 km/h (0 Bft) N 0,00 h 12,9 C 15,9 C 0,0 km/h (0 Bft)
01.07.2023 03:00 14,7 C 20,9 C 15,7 C 15,5 C 15,5 C 0,8 C 88 % 90 % 1009,3 hPa 0,0 l/m 0,0 km/h (0 Bft) N 0,00 h 12,8 C 15,5 C 0,0 km/h (0 Bft)
01.07.2023 04:00 14,4 C 20,8 C 15,3 C 15,0 C 15,0 C 0,6 C 88 % 90 % 1009,0 hPa 0,0 l/m 0,0 km/h (0 Bft) N 0,00 h 12,5 C 15,0 C 0,0 km/h (0 Bft)
01.07.2023 05:00 13,8 C 20,8 C 14,5 C 14,3 C 14,3 C 0,4 C 88 % 90 % 1008,8 hPa 0,0 l/m 0,0 km/h (0 Bft) N 0,17 h 11,9 C 14,3 C 0,0 km/h (0 Bft)
01.07.2023 06:00 13,5 C 20,7 C 14,6 C 14,8 C 14,8 C 1,3 C 88 % 90 % 1008,9 hPa 0,0 l/m 0,0 km/h (0 Bft) N 0,00 h 11,6 C 14,8 C 0,0 km/h (0 Bft)
01.07.2023 07:00 14,4 C 20,5 C 15,5 C 22,9 C 22,9 C 8,5 C 89 % 90 % 1009,0 hPa 0,0 l/m 0,3 km/h (0 Bft) N 0,92 h 12,6 C 22,9 C 1,1 km/h (0 Bft)
01.07.2023 08:00 15,4 C 20,2 C 15,8 C 27,2 C 27,2 C 11,8 C 89 % 90 % 1008,9 hPa 0,0 l/m 0,0 km/h (0 Bft) N 1,00 h 13,5 C 27,2 C 0,0 km/h (0 Bft)
01.07.2023 09:00 17,2 C 20,0 C 16,3 C 26,6 C 26,6 C 9,4 C 86 % 90 % 1008,6 hPa 0,0 l/m 0,1 km/h (0 Bft) N 1,00 h 14,8 C 26,6 C 0,5 km/h (0 Bft)
01.07.2023 10:00 19,1 C 19,9 C 17,2 C 26,2 C 26,2 C 7,1 C 75 % 80 % 1008,3 hPa 0,0 l/m 0,5 km/h (0 Bft) S 1,00 h 14,5 C 26,2 C 1,5 km/h (1 Bft)
01.07.2023 11:00 21,0 C 19,9 C 18,9 C 28,2 C 28,2 C 7,2 C 65 % 67 % 1008,0 hPa 0,0 l/m 0,5 km/h (0 Bft) S-SO 1,00 h 14,3 C 28,2 C 1,3 km/h (1 Bft)
01.07.2023 12:00 22,9 C 19,8 C 20,2 C 28,7 C 28,7 C 5,9 C 58 % 58 % 1008,3 hPa 0,0 l/m 0,6 km/h (0 Bft) SO 1,00 h 14,1 C 28,7 C 2,0 km/h (1 Bft)
01.07.2023 13:00 24,3 C 19,9 C 22,2 C 28,7 C 28,7 C 4,4 C 52 % 53 % 1008,3 hPa 0,0 l/m 0,8 km/h (0 Bft) SO 1,00 h 13,7 C 28,7 C 2,1 km/h (1 Bft)
01.07.2023 14:00 24,6 C 20,0 C 23,5 C 28,9 C 28,9 C 4,3 C 50 % 51 % 1007,6 hPa 0,0 l/m 0,7 km/h (0 Bft) O-NO 1,00 h 13,5 C 28,9 C 2,0 km/h (1 Bft)
01.07.2023 15:00 24,3 C 19,9 C 23,9 C 28,4 C 28,4 C 4,1 C 49 % 48 % 1007,8 hPa 0,0 l/m 1,0 km/h (0 Bft) SO 0,83 h 12,9 C 28,4 C 2,7 km/h (1 Bft)
01.07.2023 16:00 24,3 C 20,0 C 23,6 C 26,9 C 26,9 C 2,6 C 49 % 48 % 1007,7 hPa 0,0 l/m 0,8 km/h (0 Bft) SO 0,17 h 12,9 C 26,9 C 2,2 km/h (1 Bft)
01.07.2023 17:00 24,2 C 20,1 C 23,3 C 26,6 C 26,6 C 2,4 C 50 % 50 % 1006,9 hPa 0,0 l/m 0,1 km/h (0 Bft) N 0,00 h 13,1 C 26,6 C 0,5 km/h (0 Bft)
01.07.2023 18:00 23,7 C 20,3 C 22,6 C 25,1 C 25,1 C 1,4 C 51 % 52 % 1006,7 hPa 0,0 l/m 0,1 km/h (0 Bft) N 0,00 h 13,0 C 25,1 C 0,0 km/h (0 Bft)
01.07.2023 19:00 22,5 C 20,3 C 21,6 C 22,8 C 22,8 C 0,3 C 56 % 54 % 1006,8 hPa 0,0 l/m 0,1 km/h (0 Bft) N 0,00 h 13,3 C 22,8 C 0,0 km/h (0 Bft)
01.07.2023 20:00 20,7 C 20,3 C 20,0 C 20,6 C 20,4 C 0,0 C 65 % 61 % 1007,1 hPa 0,0 l/m 0,3 km/h (0 Bft) N 0,00 h 13,8 C 20,4 C 0,3 km/h (0 Bft)
01.07.2023 21:00 19,3 C 20,4 C 18,8 C 19,1 C 18,8 C 0,0 C 72 % 68 % 1007,4 hPa 0,0 l/m 0,1 km/h (0 Bft) N 0,00 h 14,2 C 18,8 C 0,3 km/h (0 Bft)
01.07.2023 22:00 17,6 C 20,9 C 16,7 C 17,1 C 16,2 C 0,0 C 81 % 84 % 1007,6 hPa 0,7 l/m 0,0 km/h (0 Bft) N 0,00 h 14,2 C 16,2 C 0,0 km/h (0 Bft)
01.07.2023 23:00 16,7 C 20,9 C 16,2 C 16,4 C 15,9 C 0,0 C 86 % 90 % 1007,2 hPa 0,0 l/m 0,3 km/h (0 Bft) N 0,00 h 14,2 C 15,9 C 1,0 km/h (0 Bft)
02.07.2023 00:00 16,4 C 20,9 C 16,1 C 16,2 C 15,9 C 0,0 C 87 % 90 % 1007,0 hPa 0,0 l/m 0,8 km/h (0 Bft) SW 0,00 h 14,2 C 15,9 C 2,6 km/h (1 Bft)
02.07.2023 01:00 16,5 C 20,7 C 16,1 C 16,3 C 16,1 C 0,0 C 87 % 90 % 1006,8 hPa 0,0 l/m 0,5 km/h (0 Bft) N 0,00 h 14,3 C 16,1 C 1,6 km/h (1 Bft)
02.07.2023 02:00 16,6 C 20,6 C 16,1 C 16,6 C 16,5 C 0,0 C 87 % 90 % 1006,5 hPa 0,0 l/m 0,6 km/h (0 Bft) SO 0,00 h 14,5 C 16,5 C 1,0 km/h (0 Bft)
02.07.2023 03:00 16,8 C 20,6 C 16,2 C 16,7 C 16,6 C 0,0 C 87 % 90 % 1006,5 hPa 0,7 l/m 0,3 km/h (0 Bft) N 0,00 h 14,6 C 16,6 C 0,6 km/h (0 Bft)
02.07.2023 04:00 16,8 C 20,5 C 16,3 C 16,8 C 16,7 C 0,0 C 87 % 90 % 1006,4 hPa 0,0 l/m 0,2 km/h (0 Bft) N 0,00 h 14,7 C 16,7 C 0,0 km/h (0 Bft)
02.07.2023 05:00 16,7 C 20,4 C 16,0 C 16,5 C 16,2 C 0,0 C 87 % 90 % 1006,3 hPa 0,0 l/m 0,0 km/h (0 Bft) N 0,00 h 14,5 C 16,2 C 0,0 km/h (0 Bft)
02.07.2023 06:00 16,4 C 20,4 C 16,0 C 16,4 C 16,2 C 0,1 C 87 % 90 % 1007,0 hPa 0,0 l/m 0,0 km/h (0 Bft) N 0,00 h 14,3 C 16,2 C 0,0 km/h (0 Bft)
02.07.2023 07:00 16,5 C 20,2 C 16,1 C 17,3 C 17,3 C 0,7 C 86 % 90 % 1007,4 hPa 0,0 l/m 0,1 km/h (0 Bft) N 0,00 h 14,2 C 17,3 C 0,3 km/h (0 Bft)
02.07.2023 08:00 17,4 C 20,1 C 17,1 C 20,1 C 20,1 C 2,8 C 84 % 89 % 1008,0 hPa 0,0 l/m 0,0 km/h (0 Bft) N 0,47 h 14,7 C 20,1 C 0,0 km/h (0 Bft)
02.07.2023 09:00 18,7 C 20,0 C 18,2 C 22,2 C 22,2 C 3,5 C 80 % 82 % 1008,0 hPa 0,0 l/m 0,1 km/h (0 Bft) N 0,67 h 15,1 C 22,2 C 0,0 km/h (0 Bft)
02.07.2023 10:00 19,8 C 20,0 C 18,8 C 27,4 C 27,4 C 7,6 C 70 % 70 % 1008,2 hPa 0,0 l/m 0,2 km/h (0 Bft) N 0,83 h 14,1 C 27,4 C 0,7 km/h (0 Bft)
02.07.2023 11:00 21,0 C 19,9 C 19,9 C 29,7 C 29,7 C 8,7 C 59 % 56 % 1008,4 hPa 0,0 l/m 0,0 km/h (0 Bft) N 1,00 h 12,5 C 29,7 C 0,0 km/h (0 Bft)
02.07.2023 12:00 21,7 C 19,8 C 20,4 C 29,7 C 29,7 C 8,0 C 57 % 54 % 1008,5 hPa 0,0 l/m 0,0 km/h (0 Bft) N 1,00 h 12,7 C 29,7 C 0,0 km/h (0 Bft)
02.07.2023 13:00 22,3 C 19,8 C 21,3 C 29,7 C 29,7 C 7,4 C 53 % 50 % 1008,3 hPa 0,0 l/m 0,0 km/h (0 Bft) N 1,00 h 12,2 C 29,7 C 0,0 km/h (0 Bft)
02.07.2023 14:00 22,8 C 19,9 C 22,4 C 29,7 C 29,7 C 6,9 C 52 % 50 % 1008,4 hPa 0,0 l/m 0,0 km/h (0 Bft) N 1,00 h 12,5 C 29,7 C 0,0 km/h (0 Bft)
02.07.2023 15:00 22,5 C 19,9 C 22,3 C 29,7 C 29,7 C 7,2 C 53 % 49 % 1008,9 hPa 0,0 l/m 0,0 km/h (0 Bft) N 1,00 h 12,3 C 29,7 C 0,0 km/h (0 Bft)
02.07.2023 16:00 22,7 C 19,9 C 22,6 C 29,7 C 29,7 C 7,0 C 52 % 47 % 1009,1 hPa 0,0 l/m 0,0 km/h (0 Bft) N 1,00 h 12,2 C 29,7 C 0,0 km/h (0 Bft)
02.07.2023 17:00 22,5 C 20,0 C 22,2 C 29,7 C 29,7 C 7,2 C 52 % 46 % 1009,5 hPa 0,0 l/m 0,0 km/h (0 Bft) N 1,00 h 12,1 C 29,7 C 0,0 km/h (0 Bft)
02.07.2023 18:00 22,3 C 20,0 C 21,7 C 29,7 C 29,7 C 7,4 C 53 % 48 % 1009,8 hPa 0,0 l/m 0,0 km/h (0 Bft) N 1,00 h 12,1 C 29,7 C 0,0 km/h (0 Bft)
02.07.2023 19:00 21,6 C 20,1 C 20,8 C 25,5 C 25,5 C 3,9 C 54 % 50 % 1010,0 hPa 0,0 l/m 0,1 km/h (0 Bft) N 0,50 h 12,0 C 25,5 C 0,0 km/h (0 Bft)
02.07.2023 20:00 21,0 C 20,1 C 19,8 C 21,8 C 21,8 C 0,8 C 56 % 55 % 1010,4 hPa 0,0 l/m 0,0 km/h (0 Bft) N 0,00 h 11,9 C 21,8 C 0,0 km/h (0 Bft)
02.07.2023 21:00 19,8 C 20,2 C 18,4 C 19,4 C 18,7 C 0,0 C 60 % 58 % 1010,3 hPa 0,0 l/m 0,0 km/h (0 Bft) N 0,00 h 11,7 C 18,7 C 0,0 km/h (0 Bft)
02.07.2023 22:00 18,5 C 20,2 C 17,3 C 18,0 C 16,9 C 0,0 C 63 % 60 % 1011,2 hPa 0,0 l/m 0,0 km/h (0 Bft) N 0,00 h 11,3 C 16,9 C 0,0 km/h (0 Bft)
02.07.2023 23:00 16,7 C 20,2 C 15,4 C 16,1 C 15,1 C 0,0 C 69 % 66 % 1011,4 hPa 0,0 l/m 0,0 km/h (0 Bft) N 0,00 h 11,0 C 15,1 C 0,0 km/h (0 Bft)
Min-Datum _ 29.06.23 28.06.23 29.06.23 29.06.23 26.06.23 26.06.23 26.06.23 28.06.23 02.07.23 - 26.06.23 - - 29.06.23 26.06.23 26.06.23
_ Min-Zeit 05:20 09:50 05:10 05:20 00:00 00:00 14:11 18:05 05:35 - 00:00 - - 05:20 00:00 00:00
Minimum _ 9,8 C 18,8 C 9,4 C 9,4 C 0,0 C 0,0 C 38 % 39 % 1006,1 hPa - 0,0 km/h (0 Bft) - - 7,6 C 0,0 C 0,0 km/h (0 Bft)
Max-Datum _ 26.06.23 26.06.23 26.06.23 26.06.23 26.06.23 29.06.23 01.07.23 26.06.23 28.06.23 26.06.23 30.06.23 - 28.06.23 26.06.23 26.06.23 30.06.23
_ Max-Zeit 14:11 19:40 14:45 15:45 15:45 08:35 06:35 00:31 06:55 19:21 13:50 - 10:34 18:35 15:45 13:42
Maximum _ 33,1 C 22,8 C 31,6 C 39,1 C 39,1 C 14,8 C 89 % 90 % 1019,4 hPa 6,2 l/m 2,6 km/h
N-NW (1 Bft)
- 0,38 h 19,7 C 39,1 C 20,1 km/h
N-NW (4 Bft)
Durchschnitt _ 19,0 C 20,4 C 18,2 C 21,8 C 20,9 C 3,2 C 72 % 73 % 1013,5 hPa #17,9 l/m 0,1 km/h (0 Bft) SO #63:29 h 13,3 C 20,9 C 0,3 km/h (0 Bft)
2023 www.wetterstation-wechselburg.de